SP3QYJ Weather Reports


Display with metric or nautical units.
time (UTC)temp
F
wind
direction
speed
MPH
gust
MPH
rain 1hr
in
rain 24hr
in
rain mn
in
humidity
%
barometer
mb
20210419125138 70 359 3.0 6.0 0.00 0.00 0.00 49 1018.1
20210419124451 69 59 2.0 5.0 0.00 0.00 0.00 50 1018.1
20210419123947 69 98 2.0 6.0 0.00 0.00 0.00 49 1018.1
20210419123447 68 53 1.0 5.0 0.00 0.00 0.00 51 1018.2
20210419122954 69 58 1.0 4.0 0.00 0.00 0.00 50 1018.3
20210419122656 68 49 3.0 7.0 0.00 0.00 0.00 50 1018.3
20210419122014 68 46 0.0 4.0 0.00 0.00 0.00 51 1018.3
20210419121449 67 59 2.0 5.0 0.00 0.00 0.00 52 1018.4
20210419120947 67 58 1.0 4.0 0.00 0.00 0.00 51 1018.4
20210419120452 67 14 1.0 4.0 0.00 0.00 0.00 51 1018.5
20210419115950 68 56 2.0 5.0 0.00 0.00 0.00 50 1018.5
20210419115717 69 52 3.0 7.0 0.00 0.00 0.00 50 1018.5
20210419115050 70 14 3.0 9.0 0.00 0.00 0.00 48 1018.4
20210419114447 69 34 1.0 3.0 0.00 0.00 0.00 49 1018.5
20210419113944 69 18 0.0 2.0 0.00 0.00 0.00 49 1018.4
20210419113447 70 44 3.0 5.0 0.00 0.00 0.00 48 1018.4
20210419112951 69 45 0.0 4.0 0.00 0.00 0.00 49 1018.4
20210419112738 69 17 2.0 7.0 0.00 0.00 0.00 49 1018.4
20210419112158 69 58 2.0 4.0 0.00 0.00 0.00 51 1018.4
20210419111440 69 68 1.0 4.0 0.00 0.00 0.00 51 1018.4
20210419110942 69 62 2.0 5.0 0.00 0.00 0.00 51 1018.4
20210419110441 69 39 2.0 4.0 0.00 0.00 0.00 51 1018.4
20210419105950 69 42 2.0 3.0 0.00 0.00 0.00 52 1018.5
20210419105738 69 76 2.0 5.0 0.00 0.00 0.00 52 1018.5
20210419104434 69 52 2.0 6.0 0.00 0.00 0.00 51 1018.6
20210419103933 68 60 2.0 4.0 0.00 0.00 0.00 52 1018.6
20210419102933 68 35 1.0 4.0 0.00 0.00 0.00 54 1018.8
20210419102517 67 45 2.0 4.0 0.00 0.00 0.00 54 1018.9
20210419101935 67 101 2.0 4.0 0.00 0.00 0.00 55 1018.9
20210419101432 67 84 1.0 4.0 0.00 0.00 0.00 56 1018.9
20210419100932 66 62 2.0 5.0 0.00 0.00 0.00 56 1019.0
20210419100433 66 70 2.0 4.0 0.00 0.00 0.00 57 1019.0
20210419095932 66 46 1.0 4.0 0.00 0.00 0.00 58 1019.1
20210419095622 66 42 2.0 4.0 0.00 0.00 0.00 57 1019.1
20210419095033 66 73 2.0 4.0 0.00 0.00 0.00 57 1019.2
20210419094431 66 58 2.0 7.0 0.00 0.00 0.00 57 1019.2
20210419093930 65 80 1.0 3.0 0.00 0.00 0.00 59 1019.3
20210419093436 65 205 1.0 4.0 0.00 0.00 0.00 59 1019.3
20210419092935 65 31 1.0 4.0 0.00 0.00 0.00 60 1019.3
20210419092626 64 69 0.0 2.0 0.00 0.00 0.00 62 1019.3
20210419091936 64 90 0.0 2.0 0.00 0.00 0.00 63 1019.4
20210419091431 63 228 0.0 3.0 0.00 0.00 0.00 64 1019.4
20210419090928 62 309 1.0 2.0 0.00 0.00 0.00 65 1019.4
20210419090430 62 246 1.0 3.0 0.00 0.00 0.00 68 1019.4
20210419085927 61 221 0.0 2.0 0.00 0.00 0.00 71 1019.5
20210419085443 60 253 0.0 1.0 0.00 0.00 0.00 72 1019.5
20210419084932 60 0 0.0 0.0 0.00 0.00 0.00 73 1019.5
20210419084427 59 322 0.0 2.0 0.00 0.00 0.00 75 1019.5
20210419083927 59 0 0.0 0.0 0.00 0.00 0.00 76 1019.5
20210419083427 59 0 0.0 0.0 0.00 0.00 0.00 77 1019.5
20210419082926 58 0 0.0 0.0 0.00 0.00 0.00 78 1019.6
20210419082509 58 0 0.0 0.0 0.00 0.00 0.00 79 1019.6
20210419081927 57 193 0.0 1.0 0.00 0.00 0.00 79 1019.6
20210419081425 57 0 0.0 0.0 0.00 0.00 0.00 81 1019.6
20210419080924 57 0 0.0 0.0 0.00 0.00 0.00 81 1019.7
20210419080423 56 0 0.0 0.0 0.00 0.00 0.00 82 1019.7
20210419075924 56 0 0.0 0.0 0.00 0.00 0.00 83 1019.8
20210419075547 56 0 0.0 0.0 0.00 0.00 0.00 85 1019.8
20210419074954 55 0 0.0 0.0 0.00 0.00 0.00 86 1019.8
20210419074421 55 0 0.0 0.0 0.00 0.00 0.00 87 1019.8
20210419073921 54 0 0.0 0.0 0.00 0.00 0.00 88 1019.9
20210419073421 54 0 0.0 0.0 0.00 0.00 0.00 89 1019.8
20210419072923 54 0 0.0 0.0 0.00 0.00 0.00 90 1020.0
20210419072458 53 0 0.0 0.0 0.00 0.00 0.00 92 1020.0
20210419071948 53 0 0.0 0.0 0.00 0.00 0.00 93 1020.0
20210419071417 53 0 0.0 0.0 0.00 0.00 0.00 94 1020.0
20210419070917 52 0 0.0 0.0 0.00 0.00 0.00 94 1019.9
20210419070416 52 0 0.0 0.0 0.00 0.00 0.00 95 1020.0
20210419065915 51 0 0.0 0.0 0.00 0.00 0.00 95 1020.0
20210419065436 51 0 0.0 0.0 0.00 0.00 0.00 95 1020.0
20210419064952 51 0 0.0 0.0 0.00 0.00 0.00 95 1020.0
20210419064410 51 0 0.0 0.0 0.00 0.00 0.00 96 1020.0
20210419063909 50 0 0.0 0.0 0.00 0.00 0.00 96 1019.9
20210419063406 50 0 0.0 0.0 0.00 0.00 0.00 96 1019.9
20210419062906 50 0 0.0 0.0 0.00 0.00 0.00 96 1019.9
20210419062642 50 0 0.0 0.0 0.00 0.00 0.00 96 1020.0
20210419062019 50 0 0.0 0.0 0.00 0.00 0.00 96 1020.0
20210419061406 49 0 0.0 0.0 0.00 0.00 0.00 96 1019.9
20210419060905 49 0 0.0 0.0 0.00 0.00 0.00 96 1019.9
20210419060403 49 0 0.0 0.0 0.00 0.00 0.00 96 1019.9
20210419055905 49 0 0.0 0.0 0.00 0.00 0.00 96 1020.0
20210419055527 49 0 0.0 0.0 0.00 0.00 0.00 97 1020.0
20210419055006 49 0 0.0 0.0 0.00 0.00 0.00 97 1019.9
20210419054402 48 0 0.0 0.0 0.00 0.00 0.00 97 1019.9
20210419053901 48 0 0.0 0.0 0.00 0.00 0.00 97 1020.0
20210419053400 48 0 0.0 0.0 0.00 0.00 0.00 97 1020.0
20210419052856 47 0 0.0 0.0 0.00 0.00 0.00 97 1020.1
20210419052605 47 0 0.0 0.0 0.00 0.00 0.00 97 1020.0
20210419051853 47 0 0.0 0.0 0.00 0.00 0.00 97 1019.9
20210419051354 47 0 0.0 0.0 0.00 0.00 0.00 97 1019.8
20210419050855 46 0 0.0 0.0 0.00 0.00 0.00 97 1019.9
20210419050352 46 0 0.0 0.0 0.00 0.00 0.00 97 1019.9
20210419045852 46 0 0.0 0.0 0.00 0.00 0.00 97 1019.9
20210419045422 46 0 0.0 0.0 0.00 0.00 0.00 97 1019.8
20210419044931 46 0 0.0 0.0 0.00 0.00 0.00 97 1019.6
20210419043851 46 0 0.0 0.0 0.00 0.00 0.00 97 1019.7
20210419043350 45 0 0.0 0.0 0.00 0.00 0.00 97 1019.8
20210419042850 45 0 0.0 0.0 0.00 0.00 0.00 97 1019.8
20210419042434 45 0 0.0 0.0 0.00 0.00 0.00 97 1019.8
20210419041902 46 0 0.0 0.0 0.00 0.00 0.00 97 1019.7
20210419041351 46 0 0.0 0.0 0.00 0.00 0.00 97 1019.7
20210419040922 46 0 0.0 0.0 0.00 0.00 0.00 97 1019.7
20210419040849 46 0 0.0 0.0 0.00 0.00 0.00 97 1019.7
20210419040349 46 0 0.0 0.0 0.00 0.00 0.00 97 1019.7
20210419035848 46 0 0.0 0.0 0.00 0.00 0.00 97 1019.9
20210419034857 46 0 0.0 0.0 0.00 0.00 0.00 97 1019.9
20210419034347 46 0 0.0 0.0 0.00 0.00 0.00 97 1020.0
20210419033912 46 0 0.0 0.0 0.00 0.00 0.00 97 1020.2
20210419033804 46 0 0.0 0.0 0.00 0.00 0.00 97 1020.2
20210419033423 45 0 0.0 0.0 0.00 0.00 0.00 97 1020.2
20210419031848 45 0 0.0 0.0 0.00 0.00 0.00 97 1020.2
20210419031341 45 0 0.0 0.0 0.00 0.00 0.00 97 1020.3
20210419030840 45 0 0.0 0.0 0.00 0.00 0.00 97 1020.4
20210419030342 45 0 0.0 0.0 0.00 0.00 0.00 97 1020.4
20210419025838 45 0 0.0 0.0 0.00 0.00 0.00 97 1020.4
20210419025705 45 0 0.0 0.0 0.00 0.00 0.00 96 1020.4
20210419024928 45 0 0.0 0.0 0.00 0.00 0.00 96 1020.5
20210419024335 45 0 0.0 0.0 0.00 0.00 0.00 96 1020.5
20210419023842 45 0 0.0 0.0 0.00 0.00 0.00 96 1020.5
20210419023332 45 0 0.0 0.0 0.00 0.00 0.00 96 1020.6
20210419022935 45 0 0.0 0.0 0.00 0.00 0.00 96 1020.7
20210419022655 45 0 0.0 0.0 0.00 0.00 0.00 96 1020.7
20210419021935 45 0 0.0 0.0 0.00 0.00 0.00 96 1020.8
20210419021331 45 0 0.0 0.0 0.00 0.00 0.00 96 1020.8
20210419020833 45 0 0.0 0.0 0.00 0.00 0.00 96 1020.8
20210419020329 45 0 0.0 0.0 0.00 0.00 0.00 96 1020.8
20210419015841 45 0 0.0 0.0 0.00 0.00 0.00 96 1020.8
20210419015610 45 0 0.0 0.0 0.00 0.00 0.00 96 1020.8
20210419014842 45 0 0.0 0.0 0.00 0.00 0.00 96 1020.9
20210419014329 45 0 0.0 0.0 0.00 0.00 0.00 96 1020.8
20210419013828 44 0 0.0 0.0 0.00 0.00 0.00 96 1020.9
20210419013325 44 0 0.0 0.0 0.00 0.00 0.00 96 1021.0
20210419012902 44 0 0.0 0.0 0.00 0.00 0.00 96 1021.0
20210419012707 44 0 0.0 0.0 0.00 0.00 0.00 96 1021.0
20210419011851 44 0 0.0 0.0 0.00 0.00 0.00 96 1021.0
20210419010822 44 0 0.0 0.0 0.00 0.00 0.00 96 1020.9
20210419010323 44 0 0.0 0.0 0.00 0.00 0.00 96 1021.0
20210419005939 44 0 0.0 0.0 0.00 0.00 0.00 96 1020.9
20210419005736 44 0 0.0 0.0 0.00 0.00 0.00 96 1021.0
20210419004948 44 0 0.0 0.0 0.00 0.00 0.00 96 1020.9
20210419004311 44 0 0.0 0.0 0.00 0.00 0.00 96 1020.9
20210419003810 44 0 0.0 0.0 0.00 0.00 0.00 95 1020.9
20210419003353 44 0 0.0 0.0 0.00 0.00 0.00 95 1020.9
20210419003147 44 0 0.0 0.0 0.00 0.00 0.00 95 1021.0
20210419002816 44 0 0.0 0.0 0.00 0.00 0.00 95 1021.0
20210419001944 44 0 0.0 0.0 0.00 0.00 0.00 95 1021.0
20210419001308 44 0 0.0 0.0 0.00 0.00 0.00 95 1021.0
20210419000807 44 0 0.0 0.0 0.00 0.00 0.00 95 1021.0
20210419000308 44 0 0.0 0.0 0.00 0.00 0.00 95 1021.0
20210418235849 44 0 0.0 0.0 0.00 0.00 0.00 94 1021.0
20210418235609 44 0 0.0 0.0 0.00 0.00 0.00 94 1021.0
20210418234846 45 0 0.0 0.0 0.00 0.00 0.00 94 1021.0
20210418234305 45 0 0.0 0.0 0.00 0.00 0.00 94 1021.0
20210418233816 45 0 0.0 0.0 0.00 0.00 0.00 94 1020.9
20210418233334 45 0 0.0 0.0 0.00 0.00 0.00 94 1021.0
20210418233115 45 0 0.0 0.0 0.00 0.00 0.00 94 1021.0
20210418232924 46 0 0.0 0.0 0.00 0.00 0.00 94 1021.1
20210418232029 46 0 0.0 0.0 0.00 0.00 0.00 94 1021.2
20210418231302 46 0 0.0 0.0 0.00 0.00 0.00 94 1021.2
20210418230806 46 0 0.0 0.0 0.00 0.00 0.00 94 1021.2
20210418230304 47 0 0.0 0.0 0.00 0.00 0.00 94 1021.3
20210418225909 47 0 0.0 0.0 0.00 0.00 0.00 94 1021.3
20210418225733 47 0 0.0 0.0 0.00 0.00 0.00 93 1021.3
20210418224828 47 0 0.0 0.0 0.00 0.00 0.00 94 1021.3
20210418224307 47 0 0.0 0.0 0.00 0.00 0.00 94 1021.4
20210418223801 47 0 0.0 0.0 0.00 0.00 0.00 93 1021.5
20210418223259 47 0 0.0 0.0 0.00 0.00 0.00 94 1021.5
20210418222938 47 0 0.0 0.0 0.00 0.00 0.00 94 1021.5
20210418222733 47 0 0.0 0.0 0.00 0.00 0.00 93 1021.5
20210418221914 47 0 0.0 0.0 0.00 0.00 0.00 94 1021.6
20210418221304 47 0 0.0 0.0 0.00 0.00 0.00 94 1021.6
20210418220756 47 0 0.0 0.0 0.00 0.00 0.00 93 1021.6
20210418220256 47 0 0.0 0.0 0.00 0.00 0.00 93 1021.6
20210418215907 47 0 0.0 0.0 0.00 0.00 0.00 93 1021.6
20210418215749 47 0 0.0 0.0 0.00 0.00 0.00 93 1021.7
20210418214833 47 0 0.0 0.0 0.00 0.00 0.00 92 1021.7
20210418214256 47 0 0.0 0.0 0.00 0.00 0.00 92 1021.7
20210418213816 47 0 0.0 0.0 0.00 0.00 0.00 92 1021.7
20210418213254 47 0 0.0 0.0 0.00 0.00 0.00 92 1021.7
20210418212922 47 0 0.0 0.0 0.00 0.00 0.00 92 1021.7
20210418212736 47 0 0.0 0.0 0.00 0.00 0.00 92 1021.8
20210418211813 47 0 0.0 0.0 0.00 0.00 0.00 91 1021.8
20210418210750 47 0 0.0 0.0 0.00 0.00 0.00 91 1021.8
20210418210248 47 0 0.0 0.0 0.00 0.00 0.00 91 1021.8
20210418205956 47 0 0.0 0.0 0.00 0.00 0.00 91 1021.7
20210418205853 47 0 0.0 0.0 0.00 0.00 0.00 90 1021.7
20210418204834 47 0 0.0 0.0 0.00 0.00 0.00 90 1021.7
20210418204248 47 0 0.0 0.0 0.00 0.00 0.00 90 1021.8
20210418203747 47 0 0.0 0.0 0.00 0.00 0.00 89 1021.7
20210418203251 47 0 0.0 0.0 0.00 0.00 0.00 89 1021.7
20210418202931 47 0 0.0 0.0 0.00 0.00 0.00 89 1021.7
20210418202745 47 0 0.0 0.0 0.00 0.00 0.00 88 1021.8
20210418201755 47 0 0.0 0.0 0.00 0.00 0.00 88 1021.7
20210418201242 47 0 0.0 0.0 0.00 0.00 0.00 88 1021.8
20210418200740 48 0 0.0 0.0 0.00 0.00 0.00 87 1021.8
20210418200240 48 0 0.0 0.0 0.00 0.00 0.00 87 1021.8
20210418195918 48 0 0.0 0.0 0.00 0.00 0.00 87 1021.8
20210418195706 48 0 0.0 0.0 0.00 0.00 0.00 86 1021.7
20210418194830 48 0 0.0 0.0 0.00 0.00 0.00 86 1021.7
20210418194241 48 0 0.0 0.0 0.00 0.00 0.00 86 1021.8
20210418193740 48 0 0.0 0.0 0.00 0.00 0.00 85 1021.8
20210418193238 49 0 0.0 0.0 0.00 0.00 0.00 85 1021.7
20210418193000 49 0 0.0 0.0 0.00 0.00 0.00 85 1021.7
20210418192845 49 0 0.0 0.0 0.00 0.00 0.00 84 1021.7
20210418191752 49 0 0.0 0.0 0.00 0.00 0.00 84 1021.7
20210418191236 49 0 0.0 0.0 0.00 0.00 0.00 83 1021.6
20210418190747 50 0 0.0 0.0 0.00 0.00 0.00 83 1021.6
20210418190238 50 0 0.0 0.0 0.00 0.00 0.00 83 1021.5
20210418185817 50 0 0.0 0.0 0.00 0.00 0.00 82 1021.5
20210418185542 50 0 0.0 0.0 0.00 0.00 0.00 81 1021.5
20210418184746 50 0 0.0 0.0 0.00 0.00 0.00 81 1021.5
20210418184235 50 0 0.0 0.0 0.00 0.00 0.00 81 1021.5
20210418183735 51 0 0.0 0.0 0.00 0.00 0.00 80 1021.5
20210418183235 51 0 0.0 0.0 0.00 0.00 0.00 80 1021.5
20210418182856 51 0 0.0 0.0 0.00 0.00 0.00 79 1021.5
20210418182523 51 0 0.0 0.0 0.00 0.00 0.00 79 1021.4
20210418181736 51 0 0.0 0.0 0.00 0.00 0.00 78 1021.4
20210418181235 52 0 0.0 0.0 0.00 0.00 0.00 78 1021.4
20210418180734 52 0 0.0 0.0 0.00 0.00 0.00 77 1021.4
20210418180234 52 0 0.0 0.0 0.00 0.00 0.00 77 1021.4
20210418175837 52 0 0.0 0.0 0.00 0.00 0.00 77 1021.3
20210418175648 52 184 0.0 2.0 0.00 0.00 0.00 77 1021.3
20210418174740 53 0 0.0 0.0 0.00 0.00 0.00 77 1021.2
20210418174234 53 0 0.0 0.0 0.00 0.00 0.00 77 1021.2
20210418173745 53 11 0.0 1.0 0.00 0.00 0.00 77 1021.2
20210418173241 53 7 0.0 2.0 0.00 0.00 0.00 77 1021.1
20210418172944 53 0 0.0 0.0 0.00 0.00 0.00 77 1021.0
20210418172829 53 0 0.0 0.0 0.00 0.00 0.00 76 1020.9
20210418171741 54 0 0.0 0.0 0.00 0.00 0.00 75 1020.9
20210418171230 54 0 0.0 0.0 0.00 0.00 0.00 75 1020.9
20210418170734 54 0 0.0 0.0 0.00 0.00 0.00 75 1020.8
20210418170229 54 0 0.0 0.0 0.00 0.00 0.00 74 1020.8
20210418165802 54 0 0.0 0.0 0.00 0.00 0.00 74 1020.7
20210418165350 54 0 0.0 0.0 0.00 0.00 0.00 73 1020.7
20210418164728 55 0 0.0 0.0 0.00 0.00 0.00 73 1020.7
20210418164227 55 0 0.0 0.0 0.00 0.00 0.00 72 1020.6
20210418163727 55 354 0.0 1.0 0.00 0.00 0.00 72 1020.5
20210418163325 55 30 0.0 1.0 0.00 0.00 0.00 71 1020.5
20210418163053 55 0 0.0 0.0 0.00 0.00 0.00 71 1020.5
20210418162828 56 248 0.0 2.0 0.00 0.00 0.00 70 1020.5
20210418161728 56 215 0.0 3.0 0.00 0.00 0.00 70 1020.5
20210418161217 56 0 0.0 0.0 0.00 0.00 0.00 70 1020.5
20210418160718 56 190 0.0 4.0 0.00 0.00 0.00 70 1020.4
20210418155841 56 346 1.0 3.0 0.00 0.00 0.00 70 1020.4
20210418155522 56 210 2.0 6.0 0.00 0.00 0.00 69 1020.5
20210418154716 56 201 1.0 6.0 0.00 0.00 0.00 69 1020.4
20210418154223 56 77 2.0 5.0 0.00 0.00 0.00 70 1020.4
20210418153212 56 218 1.0 4.0 0.00 0.00 0.00 72 1020.4
20210418152751 56 229 2.0 4.0 0.00 0.00 0.00 73 1020.4
20210418152356 56 270 0.0 3.0 0.00 0.00 0.00 73 1020.3
20210418151711 56 15 1.0 3.0 0.00 0.00 0.00 73 1020.4
20210418151217 55 65 1.0 4.0 0.00 0.00 0.00 73 1020.4
20210418150716 55 28 1.0 4.0 0.00 0.00 0.00 73 1020.4
20210418150217 55 49 1.0 3.0 0.00 0.00 0.00 74 1020.4
20210418145833 55 235 0.0 3.0 0.00 0.00 0.00 75 1020.4
20210418145545 55 205 0.0 2.0 0.00 0.00 0.00 76 1020.4
20210418144714 55 235 0.0 3.0 0.00 0.00 0.00 77 1020.4
20210418144227 55 267 1.0 4.0 0.00 0.00 0.00 77 1020.4
20210418143711 55 80 1.0 4.0 0.00 0.00 0.00 78 1020.4
20210418143211 55 108 0.0 2.0 0.00 0.00 0.00 80 1020.5
20210418142900 55 218 1.0 4.0 0.00 0.00 0.00 80 1020.5
20210418142546 54 24 1.0 4.0 0.00 0.00 0.00 81 1020.5
20210418141833 54 231 1.0 3.0 0.00 0.00 0.00 82 1020.5
20210418141210 54 23 1.0 5.0 0.00 0.00 0.00 83 1020.5
20210418140705 53 111 0.0 3.0 0.00 0.00 0.00 84 1020.5
20210418140210 53 103 1.0 3.0 0.00 0.00 0.00 84 1020.5
20210418135927 53 69 0.0 3.0 0.00 0.00 0.00 85 1020.5
20210418135725 53 23 1.0 6.0 0.00 0.00 0.00 85 1020.6
20210418134733 53 122 1.0 4.0 0.00 0.00 0.00 85 1020.6
20210418134217 53 294 1.0 4.0 0.00 0.00 0.00 85 1020.6
20210418133703 53 131 1.0 3.0 0.00 0.00 0.00 85 1020.6
20210418133206 53 158 1.0 3.0 0.00 0.00 0.00 84 1020.6
20210418132834 53 45 1.0 3.0 0.00 0.00 0.00 83 1020.6
20210418132349 54 24 1.0 5.0 0.00 0.00 0.00 82 1020.5
20210418131703 54 15 1.0 5.0 0.00 0.00 0.00 81 1020.5
20210418131210 54 11 1.0 6.0 0.00 0.00 0.00 80 1020.5
20210418130701 54 121 1.0 4.0 0.00 0.00 0.00 79 1020.5
20210418130325 54 128 1.0 3.0 0.00 0.00 0.00 79 1020.5
20210418125910 55 17 1.0 5.0 0.00 0.00 0.00 79 1020.5